Time;durP1;ratioP1;P1;durP2;ratioP2;P2;SDS_P1;SDS_P2;PMS_P1;PMS_P2;Temp;Humidity;BMP_temperature;BMP_pressure;BME280_temperature;BME280_humidity;BME280_pressure;Samples;Min_cycle;Max_cycle;Signal;HPM_P1;HPM_P2
2023/07/13 00:00:10;;;;;;;;;;;;;;;20.02;100.00;99811.81;4994122;28;1902;-58
2023/07/13 00:02:37;;;;;;;;;;;;;;;20.08;100.00;99810.72;4994200;28;867;-58
2023/07/13 00:05:06;;;;;;;;;;;;;;;20.13;100.00;99812.88;4994274;28;976;-58
2023/07/13 00:07:34;;;;;;;;;;;;;;;20.19;100.00;99811.00;4992887;28;1193;-57
2023/07/13 00:10:01;;;;;;;;;;;;;;;20.22;100.00;99797.28;4994325;28;886;-58
2023/07/13 00:12:32;;;;;;;;;;;;;;;20.22;100.00;99803.69;4994006;28;905;-58
2023/07/13 00:15:00;;;;;;;;;;;;;;;20.21;100.00;99801.34;4994184;28;804;-58
2023/07/13 00:17:27;;;;;;;;;;;;;;;20.21;100.00;99804.94;4993986;28;858;-58
2023/07/13 00:19:55;;;;;;;;;;;;;;;20.19;100.00;99799.78;4993998;28;859;-58
2023/07/13 00:22:25;;;;;;;;;;;;;;;20.19;100.00;99799.78;4993798;28;1898;-58
2023/07/13 00:24:58;;;;;;;;;;;;;;;20.18;100.00;99797.44;4994216;28;824;-58
2023/07/13 00:27:29;;;;;;;;;;;;;;;20.17;100.00;99798.69;4993842;28;893;-57
2023/07/13 00:29:55;;;;;;;;;;;;;;;20.13;100.00;99792.47;4993339;28;847;-57
2023/07/13 00:32:22;;;;;;;;;;;;;;;20.10;100.00;99791.38;4993647;28;811;-57
2023/07/13 00:34:49;;;;;;;;;;;;;;;20.07;100.00;99795.13;4992408;28;840;-57
2023/07/13 00:37:17;;;;;;;;;;;;;;;19.97;100.00;99794.34;4993868;28;843;-57
2023/07/13 00:39:44;;;;;;;;;;;;;;;19.92;100.00;99785.78;4993470;28;875;-57
2023/07/13 00:42:12;;;;;;;;;;;;;;;19.91;100.00;99793.41;4992264;28;1957;-58
2023/07/13 00:44:39;;;;;;;;;;;;;;;20.02;100.00;99780.94;4993505;28;850;-58
2023/07/13 00:47:05;;;;;;;;;;;;;;;20.03;100.00;99779.69;4993737;28;1010;-57
2023/07/13 00:49:33;;;;;;;;;;;;;;;20.04;100.00;99781.25;4993426;28;870;-57
2023/07/13 00:52:03;;;;;;;;;;;;;;;19.99;100.00;99765.81;4993243;28;882;-57
2023/07/13 00:54:41;;;;;;;;;;;;;;;19.91;100.00;99768.16;4993602;28;807;-57
2023/07/13 00:57:11;;;;;;;;;;;;;;;19.84;100.00;99760.06;4993281;28;851;-57
2023/07/13 00:59:39;;;;;;;;;;;;;;;19.81;100.00;99763.03;4993264;28;843;-58
2023/07/13 01:02:07;;;;;;;;;;;;;;;19.76;100.00;99750.41;4992788;28;1974;-58
2023/07/13 01:04:32;;;;;;;;;;;;;;;19.73;100.00;99752.09;4993298;28;870;-57
2023/07/13 01:07:00;;;;;;;;;;;;;;;19.72;100.00;99750.56;4993036;28;831;-57
2023/07/13 01:09:27;;;;;;;;;;;;;;;19.70;100.00;99753.06;4993055;28;878;-57
2023/07/13 01:11:54;;;;;;;;;;;;;;;19.71;100.00;99762.22;4993055;28;926;-57
2023/07/13 01:14:21;;;;;;;;;;;;;;;19.73;100.00;99756.94;4993015;28;903;-57
2023/07/13 01:16:49;;;;;;;;;;;;;;;19.75;100.00;99765.66;4992923;28;909;-57
2023/07/13 01:19:37;;;;;;;;;;;;;;;19.76;100.00;99756.03;4992883;28;832;-57
2023/07/13 01:22:08;;;;;;;;;;;;;;;19.71;100.00;99757.41;4992860;28;1937;-57
2023/07/13 01:24:36;;;;;;;;;;;;;;;19.64;100.00;99752.06;4993472;28;855;-57
2023/07/13 01:27:05;;;;;;;;;;;;;;;19.58;100.00;99759.53;4992977;28;847;-57
2023/07/13 01:29:33;;;;;;;;;;;;;;;19.53;100.00;99743.34;4992827;28;851;-57
2023/07/13 01:32:01;;;;;;;;;;;;;;;19.49;100.00;99745.53;4992586;28;1259;-57
2023/07/13 01:34:28;;;;;;;;;;;;;;;19.47;100.00;99750.81;4992716;28;839;-57
2023/07/13 01:36:55;;;;;;;;;;;;;;;19.49;100.00;99748.34;4992610;28;942;-57
2023/07/13 01:39:22;;;;;;;;;;;;;;;19.47;100.00;99753.63;4992971;28;903;-58
2023/07/13 01:41:49;;;;;;;;;;;;;;;19.45;100.00;99744.91;4991654;28;1945;-57
2023/07/13 01:44:16;;;;;;;;;;;;;;;19.43;100.00;99747.38;4992649;28;889;-57
2023/07/13 01:46:43;;;;;;;;;;;;;;;19.44;100.00;99740.53;4992732;28;991;-57
2023/07/13 01:49:10;;;;;;;;;;;;;;;19.42;100.00;99741.00;4992595;28;835;-57
2023/07/13 01:51:38;;;;;;;;;;;;;;;19.44;100.00;99738.53;4992503;28;823;-57
2023/07/13 01:54:05;;;;;;;;;;;;;;;19.49;100.00;99739.94;4992408;28;819;-57
2023/07/13 01:56:32;;;;;;;;;;;;;;;19.53;100.00;99740.56;4992473;28;839;-57
2023/07/13 01:58:59;;;;;;;;;;;;;;;19.55;100.00;99736.03;4992570;28;811;-57
2023/07/13 02:01:25;;;;;;;;;;;;;;;19.52;100.00;99733.38;4992037;28;1907;-58
2023/07/13 02:03:53;;;;;;;;;;;;;;;19.48;100.00;99741.97;4992358;28;851;-57
2023/07/13 02:06:20;;;;;;;;;;;;;;;19.46;100.00;99738.84;4991154;28;1205;-58
2023/07/13 02:08:47;;;;;;;;;;;;;;;19.45;100.00;99731.66;4992327;28;891;-58
2023/07/13 02:11:14;;;;;;;;;;;;;;;19.54;100.00;99730.88;4992462;28;812;-58
2023/07/13 02:13:41;;;;;;;;;;;;;;;19.74;100.00;99733.28;4992234;28;883;-58
2023/07/13 02:16:09;;;;;;;;;;;;;;;19.89;100.00;99736.22;4992395;28;820;-58
2023/07/13 02:18:37;;;;;;;;;;;;;;;19.98;100.00;99733.41;4992536;28;835;-58
2023/07/13 02:21:03;;;;;;;;;;;;;;;20.06;100.00;99737.47;4992155;28;1961;-57
2023/07/13 02:23:30;;;;;;;;;;;;;;;20.11;100.00;99731.22;4992255;28;808;-58
2023/07/13 02:25:59;;;;;;;;;;;;;;;20.18;100.00;99732.91;4992307;28;878;-58
2023/07/13 02:28:26;;;;;;;;;;;;;;;20.22;100.00;99721.53;4992233;28;878;-58
2023/07/13 02:30:53;;;;;;;;;;;;;;;20.23;100.00;99728.69;4992106;28;803;-58
2023/07/13 02:33:20;;;;;;;;;;;;;;;20.23;100.00;99735.09;4992161;28;863;-57
2023/07/13 02:35:46;;;;;;;;;;;;;;;20.23;100.00;99731.50;4992045;28;791;-57
2023/07/13 02:38:13;;;;;;;;;;;;;;;20.19;100.00;99735.25;4992152;28;985;-57
2023/07/13 02:40:39;;;;;;;;;;;;;;;20.20;100.00;99733.22;4991992;28;1882;-57
2023/07/13 02:43:07;;;;;;;;;;;;;;;20.21;100.00;99734.00;4992069;28;835;-58
2023/07/13 02:45:34;;;;;;;;;;;;;;;20.17;100.00;99732.13;4991998;28;994;-58
2023/07/13 02:48:01;;;;;;;;;;;;;;;20.18;100.00;99732.91;4992062;28;825;-58
2023/07/13 02:50:28;;;;;;;;;;;;;;;20.21;100.00;99736.81;4991919;28;792;-57
2023/07/13 02:52:56;;;;;;;;;;;;;;;20.24;100.00;99739.44;4992911;28;853;-57
2023/07/13 02:55:23;;;;;;;;;;;;;;;20.29;100.00;99738.03;4995722;28;922;-57
2023/07/13 02:57:50;;;;;;;;;;;;;;;20.31;100.00;99735.53;4995600;28;816;-57
2023/07/13 03:00:17;;;;;;;;;;;;;;;20.35;100.00;99734.09;4995054;28;1906;-57
2023/07/13 03:02:44;;;;;;;;;;;;;;;20.36;100.00;99734.91;4995389;28;914;-57
2023/07/13 03:05:12;;;;;;;;;;;;;;;20.39;100.00;99733.94;4995305;28;850;-57
2023/07/13 03:07:39;;;;;;;;;;;;;;;20.39;100.00;99740.34;4995357;28;878;-57
2023/07/13 03:10:07;;;;;;;;;;;;;;;20.40;100.00;99741.91;4995503;28;827;-57
2023/07/13 03:12:34;;;;;;;;;;;;;;;20.42;100.00;99740.66;4995271;28;796;-57
2023/07/13 03:15:02;;;;;;;;;;;;;;;20.40;100.00;99735.53;4995201;28;820;-57
2023/07/13 03:17:29;;;;;;;;;;;;;;;20.43;100.00;99739.41;4995086;28;815;-57
2023/07/13 03:19:57;;;;;;;;;;;;;;;20.44;100.00;99746.56;4995127;28;863;-58
2023/07/13 03:22:24;;;;;;;;;;;;;;;20.44;100.00;99738.94;4995186;28;1890;-57
2023/07/13 03:24:51;;;;;;;;;;;;;;;20.44;100.00;99747.38;4995076;28;835;-57
2023/07/13 03:27:18;;;;;;;;;;;;;;;20.44;100.00;99749.38;4994931;28;878;-57
2023/07/13 03:29:44;;;;;;;;;;;;;;;20.44;100.00;99755.78;4994795;28;874;-57
2023/07/13 03:32:11;;;;;;;;;;;;;;;20.44;100.00;99755.78;4994841;28;808;-57
2023/07/13 03:34:38;;;;;;;;;;;;;;;20.46;100.00;99760.91;4993537;28;930;-57
2023/07/13 03:37:06;;;;;;;;;;;;;;;20.47;100.00;99754.06;4995104;28;807;-57
2023/07/13 03:39:34;;;;;;;;;;;;;;;20.52;100.00;99761.84;4994726;28;894;-57
2023/07/13 03:42:01;;;;;;;;;;;;;;;20.55;100.00;99758.88;4993366;28;1969;-57
2023/07/13 03:44:28;;;;;;;;;;;;;;;20.60;100.00;99761.06;4994720;28;862;-57
2023/07/13 03:46:54;;;;;;;;;;;;;;;20.68;100.00;99757.94;4995017;28;971;-57
2023/07/13 03:49:21;;;;;;;;;;;;;;;20.74;100.00;99756.81;4994570;28;796;-57
2023/07/13 03:51:48;;;;;;;;;;;;;;;20.82;100.00;99746.00;4994743;28;855;-57
2023/07/13 03:54:15;;;;;;;;;;;;;;;20.93;100.00;99749.09;4994539;28;846;-57
2023/07/13 03:56:42;;;;;;;;;;;;;;;21.03;100.00;99755.41;4994440;28;816;-57
2023/07/13 03:59:10;;;;;;;;;;;;;;;21.09;100.00;99756.34;4994251;28;808;-57
2023/07/13 04:01:37;;;;;;;;;;;;;;;21.17;100.00;99756.78;4994127;28;2027;-57
2023/07/13 04:04:04;;;;;;;;;;;;;;;21.31;100.00;99756.03;4993796;28;851;-57
2023/07/13 04:06:32;;;;;;;;;;;;;;;21.46;100.00;99752.53;4994269;28;815;-57
2023/07/13 04:09:00;;;;;;;;;;;;;;;21.64;100.00;99755.25;4994108;28;814;-57
2023/07/13 04:11:29;;;;;;;;;;;;;;;21.92;100.00;99755.03;4994427;28;910;-57
2023/07/13 04:13:56;;;;;;;;;;;;;;;21.98;100.00;99759.50;4994038;28;811;-57
2023/07/13 04:16:23;;;;;;;;;;;;;;;21.89;100.00;99753.94;4994070;28;855;-57
2023/07/13 04:18:54;;;;;;;;;;;;;;;21.87;100.00;99756.47;4994002;28;945;-57
2023/07/13 04:21:22;;;;;;;;;;;;;;;21.93;100.00;99756.56;4994168;28;1886;-57
2023/07/13 04:23:49;;;;;;;;;;;;;;;21.98;100.00;99759.50;4994170;28;803;-57
2023/07/13 04:26:16;;;;;;;;;;;;;;;22.04;100.00;99759.59;4994107;28;808;-57
2023/07/13 04:28:43;;;;;;;;;;;;;;;22.14;100.00;99758.22;4994029;28;820;-57
2023/07/13 04:31:10;;;;;;;;;;;;;;;22.29;100.00;99754.69;4994042;28;895;-57
2023/07/13 04:33:38;;;;;;;;;;;;;;;22.48;100.00;99758.09;4994223;28;787;-57
2023/07/13 04:36:06;;;;;;;;;;;;;;;22.65;100.00;99766.81;4993794;28;911;-57
2023/07/13 04:38:33;;;;;;;;;;;;;;;22.74;100.00;99767.47;4993698;28;835;-57
2023/07/13 04:41:01;;;;;;;;;;;;;;;22.88;100.00;99765.91;4993525;28;1883;-57
2023/07/13 04:43:30;;;;;;;;;;;;;;;23.01;100.00;99763.56;4993605;28;832;-57
2023/07/13 04:45:57;;;;;;;;;;;;;;;23.16;100.00;99759.94;4993786;28;1003;-57
2023/07/13 04:48:25;;;;;;;;;;;;;;;23.36;100.00;99767.66;4993746;28;804;-56
2023/07/13 04:50:56;;;;;;;;;;;;;;;23.63;100.00;99769.28;4993448;28;819;-57
2023/07/13 04:53:24;;;;;;;;;;;;;;;23.84;100.00;99773.66;4993433;28;862;-56
2023/07/13 04:55:51;;;;;;;;;;;;;;;24.01;100.00;99773.88;4993354;28;894;-57
2023/07/13 04:58:18;;;;;;;;;;;;;;;24.13;100.00;99771.94;4993045;28;851;-57
2023/07/13 05:00:45;;;;;;;;;;;;;;;24.21;100.00;99777.91;4992970;28;1894;-57
2023/07/13 05:03:12;;;;;;;;;;;;;;;24.32;100.00;99780.84;4993338;28;808;-56
2023/07/13 05:05:39;;;;;;;;;;;;;;;24.45;100.00;99780.44;4991876;28;1161;-56
2023/07/13 05:08:05;;;;;;;;;;;;;;;24.57;100.00;99784.19;4993072;28;832;-56
2023/07/13 05:10:32;;;;;;;;;;;;;;;24.67;100.00;99779.16;4993032;28;878;-57
2023/07/13 05:12:59;;;;;;;;;;;;;;;24.70;100.00;99795.84;4993057;28;859;-56
2023/07/13 05:15:27;;;;;;;;;;;;;;;24.79;100.00;99789.25;4992944;28;863;-56
2023/07/13 05:17:54;;;;;;;;;;;;;;;24.93;100.00;99796.81;4992974;28;818;-55
2023/07/13 05:20:21;;;;;;;;;;;;;;;25.14;100.00;99791.81;4992862;28;855;-56
2023/07/13 05:22:48;;;;;;;;;;;;;;;25.41;100.00;99801.81;4992874;28;859;-56
2023/07/13 05:25:16;;;;;;;;;;;;;;;25.55;100.00;99799.28;4993078;28;847;-56
2023/07/13 05:27:45;;;;;;;;;;;;;;;25.74;100.00;99797.56;4992704;28;938;-56
2023/07/13 05:30:13;;;;;;;;;;;;;;;25.90;100.00;99784.00;4992799;28;803;-56
2023/07/13 05:32:40;;;;;;;;;;;;;;;26.07;100.00;99784.84;4992740;28;842;-56
2023/07/13 05:35:08;;;;;;;;;;;;;;;26.22;100.00;99793.91;4992684;28;886;-56
2023/07/13 05:37:35;;;;;;;;;;;;;;;26.41;100.00;99796.22;4992552;28;954;-56
2023/07/13 05:40:02;;;;;;;;;;;;;;;26.44;100.00;99803.72;4992638;28;808;-56
2023/07/13 05:42:31;;;;;;;;;;;;;;;26.48;100.00;99798.56;4992413;28;1890;-56
2023/07/13 05:44:58;;;;;;;;;;;;;;;26.79;100.00;99796.81;4992571;28;926;-56
2023/07/13 05:47:23;;;;;;;;;;;;;;;27.05;100.00;99805.78;4993011;28;1047;-56
2023/07/13 05:49:51;;;;;;;;;;;;;;;27.28;100.00;99795.22;4992703;28;823;-56
2023/07/13 05:52:18;;;;;;;;;;;;;;;27.38;100.00;99803.47;4992516;28;870;-56
2023/07/13 05:54:45;;;;;;;;;;;;;;;27.67;100.00;99797.19;4992476;28;875;-56
2023/07/13 05:57:12;;;;;;;;;;;;;;;28.05;100.00;99802.44;4992291;28;819;-56
2023/07/13 05:59:39;;;;;;;;;;;;;;;28.39;100.00;99805.84;4992478;28;799;-57
2023/07/13 06:02:09;;;;;;;;;;;;;;;28.75;100.00;99802.28;4990856;28;1902;-56
2023/07/13 06:04:36;;;;;;;;;;;;;;;29.19;100.00;99806.81;4992732;28;812;-56
2023/07/13 06:07:03;;;;;;;;;;;;;;;29.39;100.00;99802.72;4992599;28;909;-56
2023/07/13 06:09:30;;;;;;;;;;;;;;;29.78;100.00;99810.03;4992651;28;879;-56
2023/07/13 06:11:57;;;;;;;;;;;;;;;30.07;100.00;99804.75;4992616;28;812;-55
2023/07/13 06:14:23;;;;;;;;;;;;;;;30.45;100.00;99807.59;4992781;28;1234;-56
2023/07/13 06:16:50;;;;;;;;;;;;;;;30.86;98.79;99800.72;4992375;28;812;-56
2023/07/13 06:19:18;;;;;;;;;;;;;;;31.10;97.52;99805.50;4992388;28;1186;-56
2023/07/13 06:21:45;;;;;;;;;;;;;;;31.73;94.87;99809.50;4992513;28;1894;-56
2023/07/13 06:24:13;;;;;;;;;;;;;;;32.00;93.04;99794.44;4992535;28;799;-55
2023/07/13 06:26:40;;;;;;;;;;;;;;;32.15;85.86;99780.31;4992485;28;819;-55
2023/07/13 06:29:07;;;;;;;;;;;;;;;32.85;83.54;99794.00;4995130;28;812;-56
2023/07/13 06:31:34;;;;;;;;;;;;;;;33.37;80.12;99791.34;4996144;28;835;-56
2023/07/13 06:34:01;;;;;;;;;;;;;;;33.76;78.14;99790.25;4996059;28;851;-56
2023/07/13 06:36:28;;;;;;;;;;;;;;;34.03;76.33;99786.34;4996108;28;808;-56
2023/07/13 06:38:55;;;;;;;;;;;;;;;34.27;71.16;99794.47;4978387;28;1170;-56
2023/07/13 06:41:25;;;;;;;;;;;;;;;34.45;65.68;99794.69;4996097;28;1890;-56
2023/07/13 06:43:53;;;;;;;;;;;;;;;34.83;63.96;99785.38;4995680;28;939;-56
2023/07/13 06:46:21;;;;;;;;;;;;;;;35.30;62.09;99787.66;4995910;28;917;-56
2023/07/13 06:48:48;;;;;;;;;;;;;;;35.54;61.58;99782.63;4995796;28;936;-56
2023/07/13 06:51:15;;;;;;;;;;;;;;;35.73;60.19;99788.69;4995656;28;883;-57
2023/07/13 06:53:43;;;;;;;;;;;;;;;35.98;59.31;99783.03;4995497;28;958;-57
2023/07/13 06:56:11;;;;;;;;;;;;;;;36.29;58.64;99774.25;4995491;28;878;-57
2023/07/13 06:58:37;;;;;;;;;;;;;;;36.26;57.75;99771.81;4995793;28;812;-58
2023/07/13 07:01:05;;;;;;;;;;;;;;;36.58;57.04;99776.75;4995370;28;1903;-57
2023/07/13 07:03:32;;;;;;;;;;;;;;;37.01;55.75;99779.69;4995420;28;819;-57
2023/07/13 07:06:17;;;;;;;;;;;;;;;37.29;54.32;99776.34;4995381;28;791;-57
2023/07/13 07:08:47;;;;;;;;;;;;;;;37.68;52.63;99776.69;4995346;28;804;-57
2023/07/13 07:11:16;;;;;;;;;;;;;;;37.96;51.73;99766.75;4977845;28;1186;-58
2023/07/13 07:13:43;;;;;;;;;;;;;;;38.08;50.65;99764.09;4995319;28;843;-57
2023/07/13 07:16:10;;;;;;;;;;;;;;;38.51;48.83;99766.78;4995139;28;812;-57
2023/07/13 07:18:38;;;;;;;;;;;;;;;39.05;43.58;99766.66;4993980;28;887;-57
2023/07/13 07:21:05;;;;;;;;;;;;;;;38.64;43.77;99769.25;4995025;28;1890;-57
2023/07/13 07:23:32;;;;;;;;;;;;;;;38.63;43.88;99767.72;4995271;28;883;-57
2023/07/13 07:25:59;;;;;;;;;;;;;;;39.11;42.75;99761.31;4996731;28;1288;-57
2023/07/13 07:28:28;;;;;;;;;;;;;;;39.11;42.30;99770.00;5014870;28;874;-57
2023/07/13 07:30:56;;;;;;;;;;;;;;;39.35;42.26;99761.69;5014502;28;850;-56
2023/07/13 07:33:23;;;;;;;;;;;;;;;39.87;40.89;99766.25;5014466;28;882;-57
2023/07/13 07:35:50;;;;;;;;;;;;;;;40.00;39.41;99768.66;5014395;28;912;-57
2023/07/13 07:38:17;;;;;;;;;;;;;;;39.90;39.12;99762.88;5014334;28;811;-57
2023/07/13 07:40:44;;;;;;;;;;;;;;;39.71;38.74;99765.78;5013049;28;1890;-57
2023/07/13 07:43:12;;;;;;;;;;;;;;;39.76;38.62;99768.38;5014246;28;819;-57
2023/07/13 07:45:39;;;;;;;;;;;;;;;39.72;38.40;99755.75;5014201;28;876;-57
2023/07/13 07:48:07;;;;;;;;;;;;;;;39.92;37.83;99765.16;5014289;28;822;-56
2023/07/13 07:50:34;;;;;;;;;;;;;;;39.85;37.99;99763.97;5014125;28;929;-56
2023/07/13 07:53:02;;;;;;;;;;;;;;;40.10;37.22;99759.97;5014000;28;870;-57
2023/07/13 07:55:29;;;;;;;;;;;;;;;40.50;36.02;99752.66;5013979;28;824;-56
2023/07/13 07:57:57;;;;;;;;;;;;;;;40.67;35.19;99754.56;5013970;28;816;-56
2023/07/13 08:00:23;;;;;;;;;;;;;;;40.75;35.25;99755.91;5013815;28;1217;-57
2023/07/13 08:02:51;;;;;;;;;;;;;;;40.89;35.03;99759.03;5013953;28;1911;-57
2023/07/13 08:05:18;;;;;;;;;;;;;;;40.88;34.38;99750.97;5013872;28;906;-56
2023/07/13 08:07:45;;;;;;;;;;;;;;;40.75;34.72;99755.16;5014066;28;791;-56
2023/07/13 08:10:13;;;;;;;;;;;;;;;40.62;34.64;99753.53;5013792;28;881;-56
2023/07/13 08:12:40;;;;;;;;;;;;;;;40.37;34.93;99751.81;5013775;28;865;-56
2023/07/13 08:15:10;;;;;;;;;;;;;;;40.39;34.75;99748.28;5013655;28;894;-56
2023/07/13 08:17:37;;;;;;;;;;;;;;;40.45;34.71;99742.19;5013789;28;874;-56
2023/07/13 08:20:04;;;;;;;;;;;;;;;40.57;34.75;99745.94;5013975;28;850;-57
2023/07/13 08:22:31;;;;;;;;;;;;;;;40.77;34.76;99746.63;5013692;28;1945;-56
2023/07/13 08:24:59;;;;;;;;;;;;;;;41.11;33.57;99741.66;5013506;28;795;-57
2023/07/13 08:27:27;;;;;;;;;;;;;;;41.53;33.55;99743.78;5013545;28;819;-57
2023/07/13 08:29:53;;;;;;;;;;;;;;;41.32;33.04;99729.31;5013345;28;944;-56
2023/07/13 08:32:21;;;;;;;;;;;;;;;41.45;32.97;99730.91;5013657;28;842;-56
2023/07/13 08:34:47;;;;;;;;;;;;;;;41.64;32.27;99736.53;5013377;28;993;-56
2023/07/13 08:37:15;;;;;;;;;;;;;;;41.86;31.83;99733.56;5013327;28;772;-57
2023/07/13 08:39:42;;;;;;;;;;;;;;;41.59;31.99;99720.25;5013448;28;815;-57
2023/07/13 08:42:18;;;;;;;;;;;;;;;41.56;31.81;99716.41;5013108;28;1886;-56
2023/07/13 08:44:57;;;;;;;;;;;;;;;41.62;31.61;99728.44;5013181;28;882;-56
2023/07/13 08:47:25;;;;;;;;;;;;;;;41.63;31.78;99726.31;5013497;28;993;-54
2023/07/13 08:49:52;;;;;;;;;;;;;;;41.73;31.73;99724.06;5013031;28;903;-56
2023/07/13 08:52:37;;;;;;;;;;;;;;;41.61;30.87;99723.28;5012567;28;871;-56
2023/07/13 08:55:16;;;;;;;;;;;;;;;41.17;32.03;99725.47;5013109;28;855;-56
2023/07/13 08:57:45;;;;;;;;;;;;;;;41.25;31.39;99722.38;5012898;28;843;-56
2023/07/13 09:00:14;;;;;;;;;;;;;;;41.20;30.94;99721.34;5012615;28;1266;-56
2023/07/13 09:02:57;;;;;;;;;;;;;;;41.22;30.71;99714.91;5012757;28;1902;-56
2023/07/13 09:05:34;;;;;;;;;;;;;;;41.16;30.73;99717.38;5012784;28;791;-56
2023/07/13 09:08:04;;;;;;;;;;;;;;;41.16;30.05;99714.50;5012838;28;851;-56
2023/07/13 09:10:40;;;;;;;;;;;;;;;40.96;29.50;99717.50;5012772;28;882;-56
2023/07/13 09:13:13;;;;;;;;;;;;;;;41.24;29.08;99711.38;4995180;28;855;-56
2023/07/13 09:47:23;;;;;;;;;;;;;;;40.56;28.09;99687.25;5656700;23;2042;-71
2023/07/13 09:49:58;;;;;;;;;;;;;;;40.64;28.38;99683.41;5010977;28;903;-72
2023/07/13 09:52:27;;;;;;;;;;;;;;;40.33;28.42;99682.06;5012794;28;838;-71
2023/07/13 09:54:59;;;;;;;;;;;;;;;39.84;29.69;99672.78;5013075;28;959;-75
2023/07/13 09:57:27;;;;;;;;;;;;;;;39.71;29.60;99684.78;5012834;28;894;-75
2023/07/13 09:59:56;;;;;;;;;;;;;;;39.83;29.81;99674.13;5013384;28;1204;-75
2023/07/13 10:02:28;;;;;;;;;;;;;;;39.91;29.05;99671.09;4994863;28;1922;-73
2023/07/13 10:05:14;;;;;;;;;;;;;;;40.03;28.91;99662.50;5016851;28;905;-75
2023/07/13 10:07:44;;;;;;;;;;;;;;;40.33;28.90;99661.78;5016908;28;788;-73
2023/07/13 10:10:22;;;;;;;;;;;;;;;40.46;28.20;99654.72;5016290;28;985;-73
2023/07/13 10:12:51;;;;;;;;;;;;;;;40.72;28.35;99647.09;5016687;28;815;-72
2023/07/13 10:15:24;;;;;;;;;;;;;;;40.81;27.66;99640.47;5016680;28;889;-72
2023/07/13 10:17:52;;;;;;;;;;;;;;;40.87;28.52;99636.47;4999251;28;843;-73
2023/07/13 10:20:20;;;;;;;;;;;;;;;41.11;28.11;99640.97;5016710;28;802;-74
2023/07/13 10:22:52;;;;;;;;;;;;;;;40.98;27.61;99627.06;4998568;28;1886;-73
2023/07/13 10:25:20;;;;;;;;;;;;;;;40.74;27.46;99620.41;5016006;28;858;-74
2023/07/13 10:27:50;;;;;;;;;;;;;;;40.70;28.09;99625.91;5016671;28;870;-72
2023/07/13 10:30:25;;;;;;;;;;;;;;;40.50;28.17;99619.47;5016726;28;897;-74
2023/07/13 10:32:52;;;;;;;;;;;;;;;40.35;28.64;99623.53;5016690;28;866;-71
2023/07/13 10:35:20;;;;;;;;;;;;;;;40.37;28.40;99618.66;5015960;28;885;-73
2023/07/13 10:37:53;;;;;;;;;;;;;;;40.44;27.89;99619.81;5016499;28;858;-73
2023/07/13 10:40:24;;;;;;;;;;;;;;;40.60;27.56;99615.13;5015890;28;837;-73
2023/07/13 10:42:54;;;;;;;;;;;;;;;40.84;27.82;99605.84;5016247;28;2020;-74
2023/07/13 10:45:22;;;;;;;;;;;;;;;41.03;27.12;99608.56;5015673;28;823;-72
2023/07/13 10:47:52;;;;;;;;;;;;;;;41.21;26.53;99603.25;5016824;28;1242;-75
2023/07/13 10:50:27;;;;;;;;;;;;;;;41.46;26.32;99605.59;5016698;28;998;-74
2023/07/13 10:53:03;;;;;;;;;;;;;;;41.89;25.85;99601.72;5016417;28;815;-73
2023/07/13 10:55:55;;;;;;;;;;;;;;;42.18;25.81;99595.56;5016598;28;802;-73
2023/07/13 10:58:29;;;;;;;;;;;;;;;42.27;25.40;99599.72;5016332;28;806;-74
2023/07/13 11:01:04;;;;;;;;;;;;;;;42.09;25.66;99599.38;5016573;28;1973;-74
2023/07/13 11:03:31;;;;;;;;;;;;;;;42.51;25.49;99595.41;5015598;28;811;-69
2023/07/13 11:06:12;;;;;;;;;;;;;;;42.66;25.14;99594.09;5015296;28;858;-69
2023/07/13 11:09:00;;;;;;;;;;;;;;;42.51;24.82;99603.38;5015395;28;886;-72
2023/07/13 11:11:31;;;;;;;;;;;;;;;42.59;25.20;99598.81;4976245;28;1337;-71
2023/07/13 11:14:02;;;;;;;;;;;;;;;42.95;25.07;99601.59;5015781;28;827;-73
2023/07/13 11:16:46;;;;;;;;;;;;;;;43.50;24.54;99604.00;5015640;28;878;-73
2023/07/13 11:19:15;;;;;;;;;;;;;;;43.89;23.96;99600.31;5015475;28;811;-72
2023/07/13 11:22:00;;;;;;;;;;;;;;;43.85;23.73;99606.66;5016349;28;1941;-71
2023/07/13 11:24:47;;;;;;;;;;;;;;;43.89;23.25;99603.97;5018027;28;799;-74
2023/07/13 11:27:32;;;;;;;;;;;;;;;43.22;23.56;99606.78;5015193;28;881;-73
2023/07/13 11:30:19;;;;;;;;;;;;;;;42.73;24.33;99598.88;5025282;28;851;-74
2023/07/13 11:33:05;;;;;;;;;;;;;;;42.70;23.91;99596.47;5034582;28;980;-73
2023/07/13 11:35:36;;;;;;;;;;;;;;;41.26;25.52;99607.16;5034899;28;838;-75
2023/07/13 11:38:09;;;;;;;;;;;;;;;40.55;26.49;99598.13;5034651;28;918;-76
2023/07/13 11:40:36;;;;;;;;;;;;;;;39.92;27.34;99601.03;5034931;28;1878;-74
2023/07/13 11:43:07;;;;;;;;;;;;;;;39.55;27.98;99595.50;5034276;28;888;-75
2023/07/13 11:45:34;;;;;;;;;;;;;;;39.29;27.93;99596.47;5035100;28;915;-75
2023/07/13 11:48:01;;;;;;;;;;;;;;;39.45;27.42;99594.78;5034184;28;1329;-76
2023/07/13 11:50:29;;;;;;;;;;;;;;;39.63;28.13;99591.69;5034419;28;889;-76
2023/07/13 11:52:58;;;;;;;;;;;;;;;40.26;27.47;99584.53;5017217;28;1580;-75
2023/07/13 11:55:25;;;;;;;;;;;;;;;40.85;27.65;99592.88;5034870;28;873;-75
2023/07/13 11:57:58;;;;;;;;;;;;;;;42.38;26.08;99596.81;5035024;28;906;-76
2023/07/13 12:00:28;;;;;;;;;;;;;;;44.45;23.53;99587.31;5034363;28;853;-76
2023/07/13 12:02:57;;;;;;;;;;;;;;;45.02;22.12;99592.31;5034244;28;1902;-72
2023/07/13 12:05:24;;;;;;;;;;;;;;;44.44;22.91;99594.47;5034637;28;818;-75
2023/07/13 12:07:51;;;;;;;;;;;;;;;42.49;24.26;99595.28;5034703;28;830;-75
2023/07/13 12:10:23;;;;;;;;;;;;;;;41.04;26.15;99597.75;5034391;28;834;-76
2023/07/13 12:12:49;;;;;;;;;;;;;;;39.90;27.50;99595.09;5015148;28;1275;-74
2023/07/13 12:15:16;;;;;;;;;;;;;;;39.17;28.38;99596.31;5033730;28;834;-75
2023/07/13 12:17:42;;;;;;;;;;;;;;;40.09;27.85;99599.28;5033689;28;822;-73
2023/07/13 12:20:18;;;;;;;;;;;;;;;41.85;25.97;99593.53;5033672;28;795;-74
2023/07/13 12:22:49;;;;;;;;;;;;;;;43.65;24.23;99585.94;5033989;28;1882;-75
2023/07/13 12:25:17;;;;;;;;;;;;;;;44.10;23.94;99578.88;5034091;28;874;-73
2023/07/13 12:27:52;;;;;;;;;;;;;;;43.12;24.55;99574.97;5035272;28;853;-74
2023/07/13 12:30:26;;;;;;;;;;;;;;;41.54;25.61;99571.28;5034486;28;809;-75
2023/07/13 12:33:00;;;;;;;;;;;;;;;40.51;27.13;99565.97;5016150;28;1386;-71
2023/07/13 12:35:29;;;;;;;;;;;;;;;39.33;28.56;99573.66;5033567;28;843;-74
2023/07/13 12:38:00;;;;;;;;;;;;;;;38.57;29.46;99570.94;5033615;28;803;-74
2023/07/13 12:40:32;;;;;;;;;;;;;;;39.91;28.34;99559.00;5033271;28;894;-74
2023/07/13 12:43:04;;;;;;;;;;;;;;;41.80;26.39;99551.91;5033450;28;1922;-73
2023/07/13 12:45:30;;;;;;;;;;;;;;;42.50;25.04;99555.38;5032926;28;899;-75
2023/07/13 12:47:59;;;;;;;;;;;;;;;43.89;23.68;99554.47;5032817;28;1384;-74
2023/07/13 12:50:37;;;;;;;;;;;;;;;45.17;22.70;99547.09;5033129;28;841;-74
2023/07/13 12:53:07;;;;;;;;;;;;;;;46.42;21.60;99541.88;5034107;28;788;-75
2023/07/13 12:55:53;;;;;;;;;;;;;;;46.77;20.74;99537.50;5016660;28;1295;-74
2023/07/13 12:58:36;;;;;;;;;;;;;;;46.84;20.37;99532.66;5032357;28;1054;-75
2023/07/13 13:01:04;;;;;;;;;;;;;;;46.93;20.37;99524.97;5015918;28;1914;-74
2023/07/13 13:03:36;;;;;;;;;;;;;;;47.20;19.68;99526.78;5034001;28;826;-75
2023/07/13 13:06:04;;;;;;;;;;;;;;;47.57;19.16;99525.28;5033334;28;826;-72
2023/07/13 13:08:33;;;;;;;;;;;;;;;47.94;19.06;99512.75;5033133;28;835;-72
2023/07/13 13:11:01;;;;;;;;;;;;;;;47.46;19.43;99509.50;5033021;28;1216;-73
2023/07/13 13:13:28;;;;;;;;;;;;;;;47.03;19.67;99502.72;5033324;28;1193;-74
2023/07/13 13:15:57;;;;;;;;;;;;;;;46.60;20.11;99503.16;5015459;28;1450;-73
2023/07/13 13:18:24;;;;;;;;;;;;;;;46.64;19.86;99506.25;5033067;28;811;-74
2023/07/13 13:20:51;;;;;;;;;;;;;;;46.78;19.50;99498.09;5015199;28;1957;-73
2023/07/13 13:23:19;;;;;;;;;;;;;;;46.77;19.58;99493.66;5032504;28;795;-73
2023/07/13 13:25:50;;;;;;;;;;;;;;;45.87;20.14;99497.81;5032726;28;877;-73
2023/07/13 13:28:19;;;;;;;;;;;;;;;45.72;20.78;99502.28;5032257;28;862;-73
2023/07/13 13:30:46;;;;;;;;;;;;;;;45.67;20.88;99495.50;5032277;28;803;-72
2023/07/13 13:33:15;;;;;;;;;;;;;;;45.38;21.29;99497.09;5032259;28;786;-73
2023/07/13 13:35:43;;;;;;;;;;;;;;;44.77;21.42;99491.25;5032091;28;874;-70
2023/07/13 13:38:14;;;;;;;;;;;;;;;44.47;21.53;99494.19;5032372;28;1016;-72
2023/07/13 13:40:42;;;;;;;;;;;;;;;44.78;21.39;99495.69;5032371;28;901;-73